sensor_id;sensor_type;location;lat;lon;timestamp;P1;durP1;ratioP1;P2;durP2;ratioP2
22160;SDS011;49035;48.812;11.762;2023-02-01T00:00:00;5.93;;;3.97;;
22160;SDS011;49035;48.812;11.762;2023-02-01T00:02:26;9.13;;;3.90;;
22160;SDS011;49035;48.812;11.762;2023-02-01T00:04:51;6.63;;;4.00;;
22160;SDS011;49035;48.812;11.762;2023-02-01T00:07:17;9.57;;;4.97;;
22160;SDS011;49035;48.812;11.762;2023-02-01T00:09:42;6.63;;;4.47;;
22160;SDS011;49035;48.812;11.762;2023-02-01T00:12:08;8.67;;;4.00;;
22160;SDS011;49035;48.812;11.762;2023-02-01T00:14:34;8.43;;;4.30;;
22160;SDS011;49035;48.812;11.762;2023-02-01T00:17:06;7.57;;;4.03;;
22160;SDS011;49035;48.812;11.762;2023-02-01T00:19:33;5.23;;;4.20;;
22160;SDS011;49035;48.812;11.762;2023-02-01T00:21:59;8.80;;;4.37;;
22160;SDS011;49035;48.812;11.762;2023-02-01T00:24:25;7.27;;;4.57;;
22160;SDS011;49035;48.812;11.762;2023-02-01T00:26:51;6.97;;;4.57;;
22160;SDS011;49035;48.812;11.762;2023-02-01T00:29:17;8.27;;;4.23;;
22160;SDS011;49035;48.812;11.762;2023-02-01T00:31:45;8.50;;;4.30;;
22160;SDS011;49035;48.812;11.762;2023-02-01T00:34:14;9.90;;;4.40;;
22160;SDS011;49035;48.812;11.762;2023-02-01T00:36:41;9.90;;;4.40;;
22160;SDS011;49035;48.812;11.762;2023-02-01T00:39:07;8.30;;;4.70;;
22160;SDS011;49035;48.812;11.762;2023-02-01T00:41:33;9.53;;;4.13;;
22160;SDS011;49035;48.812;11.762;2023-02-01T00:43:59;6.17;;;3.87;;
22160;SDS011;49035;48.812;11.762;2023-02-01T00:46:24;9.77;;;4.10;;
22160;SDS011;49035;48.812;11.762;2023-02-01T00:48:50;7.30;;;4.50;;
22160;SDS011;49035;48.812;11.762;2023-02-01T00:51:17;6.53;;;4.27;;
22160;SDS011;49035;48.812;11.762;2023-02-01T00:53:45;7.97;;;4.40;;
22160;SDS011;49035;48.812;11.762;2023-02-01T00:56:11;7.83;;;4.40;;
22160;SDS011;49035;48.812;11.762;2023-02-01T00:58:37;7.07;;;3.67;;
22160;SDS011;49035;48.812;11.762;2023-02-01T01:01:03;7.00;;;4.33;;
22160;SDS011;49035;48.812;11.762;2023-02-01T01:03:32;7.40;;;3.83;;
22160;SDS011;49035;48.812;11.762;2023-02-01T01:05:59;7.27;;;4.07;;
22160;SDS011;49035;48.812;11.762;2023-02-01T01:08:26;6.00;;;3.63;;
22160;SDS011;49035;48.812;11.762;2023-02-01T01:10:52;7.53;;;3.77;;
22160;SDS011;49035;48.812;11.762;2023-02-01T01:13:18;7.90;;;4.03;;
22160;SDS011;49035;48.812;11.762;2023-02-01T01:15:44;6.10;;;3.67;;
22160;SDS011;49035;48.812;11.762;2023-02-01T01:18:09;5.63;;;3.57;;
22160;SDS011;49035;48.812;11.762;2023-02-01T01:20:36;6.07;;;3.67;;
22160;SDS011;49035;48.812;11.762;2023-02-01T01:23:04;5.77;;;3.50;;
22160;SDS011;49035;48.812;11.762;2023-02-01T01:25:31;6.53;;;4.00;;
22160;SDS011;49035;48.812;11.762;2023-02-01T01:27:57;5.70;;;3.33;;
22160;SDS011;49035;48.812;11.762;2023-02-01T01:30:23;4.93;;;3.20;;
22160;SDS011;49035;48.812;11.762;2023-02-01T01:32:49;4.07;;;3.30;;
22160;SDS011;49035;48.812;11.762;2023-02-01T01:35:16;5.10;;;3.67;;
22160;SDS011;49035;48.812;11.762;2023-02-01T01:37:42;5.90;;;3.50;;
22160;SDS011;49035;48.812;11.762;2023-02-01T01:40:08;4.87;;;3.57;;
22160;SDS011;49035;48.812;11.762;2023-02-01T01:42:39;9.70;;;3.97;;
22160;SDS011;49035;48.812;11.762;2023-02-01T01:45:07;5.20;;;3.53;;
22160;SDS011;49035;48.812;11.762;2023-02-01T01:47:40;7.17;;;3.50;;
22160;SDS011;49035;48.812;11.762;2023-02-01T01:50:13;6.60;;;4.17;;
22160;SDS011;49035;48.812;11.762;2023-02-01T01:52:42;6.97;;;3.67;;
22160;SDS011;49035;48.812;11.762;2023-02-01T01:55:11;6.93;;;3.77;;
22160;SDS011;49035;48.812;11.762;2023-02-01T01:57:39;6.30;;;3.63;;
22160;SDS011;49035;48.812;11.762;2023-02-01T02:00:14;6.57;;;3.93;;
22160;SDS011;49035;48.812;11.762;2023-02-01T02:02:42;7.47;;;4.47;;
22160;SDS011;49035;48.812;11.762;2023-02-01T02:05:11;5.67;;;3.70;;
22160;SDS011;49035;48.812;11.762;2023-02-01T02:07:40;8.20;;;4.27;;
22160;SDS011;49035;48.812;11.762;2023-02-01T02:10:09;7.60;;;4.23;;
22160;SDS011;49035;48.812;11.762;2023-02-01T02:12:37;7.40;;;4.30;;
22160;SDS011;49035;48.812;11.762;2023-02-01T02:15:03;7.77;;;4.60;;
22160;SDS011;49035;48.812;11.762;2023-02-01T02:17:35;6.37;;;4.40;;
22160;SDS011;49035;48.812;11.762;2023-02-01T02:22:42;6.80;;;4.43;;
22160;SDS011;49035;48.812;11.762;2023-02-01T02:31:13;6.83;;;3.93;;
22160;SDS011;49035;48.812;11.762;2023-02-01T02:45:27;8.67;;;4.10;;
22160;SDS011;49035;48.812;11.762;2023-02-01T02:48:19;6.97;;;3.80;;
22160;SDS011;49035;48.812;11.762;2023-02-01T02:50:58;6.47;;;3.87;;
22160;SDS011;49035;48.812;11.762;2023-02-01T02:53:48;6.00;;;3.80;;
22160;SDS011;49035;48.812;11.762;2023-02-01T02:56:35;6.87;;;4.10;;
22160;SDS011;49035;48.812;11.762;2023-02-01T02:59:21;7.23;;;4.27;;
22160;SDS011;49035;48.812;11.762;2023-02-01T03:02:09;5.10;;;3.50;;
22160;SDS011;49035;48.812;11.762;2023-02-01T03:04:54;6.47;;;4.20;;
22160;SDS011;49035;48.812;11.762;2023-02-01T03:10:16;8.73;;;3.97;;
22160;SDS011;49035;48.812;11.762;2023-02-01T03:12:53;7.37;;;3.80;;
22160;SDS011;49035;48.812;11.762;2023-02-01T03:15:26;6.43;;;4.07;;
22160;SDS011;49035;48.812;11.762;2023-02-01T03:18:00;7.60;;;4.07;;
22160;SDS011;49035;48.812;11.762;2023-02-01T03:20:28;8.30;;;4.13;;
22160;SDS011;49035;48.812;11.762;2023-02-01T03:22:55;5.67;;;3.80;;
22160;SDS011;49035;48.812;11.762;2023-02-01T03:25:25;9.27;;;4.27;;
22160;SDS011;49035;48.812;11.762;2023-02-01T03:27:56;5.33;;;3.60;;
22160;SDS011;49035;48.812;11.762;2023-02-01T03:30:29;6.27;;;4.17;;
22160;SDS011;49035;48.812;11.762;2023-02-01T03:32:58;6.30;;;3.93;;
22160;SDS011;49035;48.812;11.762;2023-02-01T03:35:28;6.97;;;4.17;;
22160;SDS011;49035;48.812;11.762;2023-02-01T03:38:42;6.03;;;4.20;;
22160;SDS011;49035;48.812;11.762;2023-02-01T03:41:15;5.90;;;3.90;;
22160;SDS011;49035;48.812;11.762;2023-02-01T03:43:47;6.97;;;4.40;;
22160;SDS011;49035;48.812;11.762;2023-02-01T03:46:26;6.33;;;4.20;;
22160;SDS011;49035;48.812;11.762;2023-02-01T03:48:59;7.23;;;4.20;;
22160;SDS011;49035;48.812;11.762;2023-02-01T03:51:27;6.23;;;4.23;;
22160;SDS011;49035;48.812;11.762;2023-02-01T03:53:54;5.87;;;3.90;;
22160;SDS011;49035;48.812;11.762;2023-02-01T03:56:21;6.00;;;4.00;;
22160;SDS011;49035;48.812;11.762;2023-02-01T03:58:48;11.10;;;4.67;;
22160;SDS011;49035;48.812;11.762;2023-02-01T04:01:24;5.70;;;3.77;;
22160;SDS011;49035;48.812;11.762;2023-02-01T04:03:53;6.10;;;3.80;;
22160;SDS011;49035;48.812;11.762;2023-02-01T04:06:19;8.30;;;4.20;;
22160;SDS011;49035;48.812;11.762;2023-02-01T04:08:45;6.07;;;3.77;;
22160;SDS011;49035;48.812;11.762;2023-02-01T04:11:11;6.83;;;3.87;;
22160;SDS011;49035;48.812;11.762;2023-02-01T04:13:36;7.37;;;4.13;;
22160;SDS011;49035;48.812;11.762;2023-02-01T04:16:02;5.83;;;3.73;;
22160;SDS011;49035;48.812;11.762;2023-02-01T04:18:28;6.17;;;3.43;;
22160;SDS011;49035;48.812;11.762;2023-02-01T04:20:53;5.10;;;3.63;;
22160;SDS011;49035;48.812;11.762;2023-02-01T04:23:19;4.97;;;3.63;;
22160;SDS011;49035;48.812;11.762;2023-02-01T04:25:45;5.70;;;2.83;;
22160;SDS011;49035;48.812;11.762;2023-02-01T04:28:11;5.47;;;3.40;;
22160;SDS011;49035;48.812;11.762;2023-02-01T04:30:37;5.33;;;3.67;;
22160;SDS011;49035;48.812;11.762;2023-02-01T04:33:02;6.63;;;3.67;;
22160;SDS011;49035;48.812;11.762;2023-02-01T04:35:31;5.07;;;3.20;;
22160;SDS011;49035;48.812;11.762;2023-02-01T04:37:57;4.93;;;3.23;;
22160;SDS011;49035;48.812;11.762;2023-02-01T04:40:22;5.47;;;3.30;;
22160;SDS011;49035;48.812;11.762;2023-02-01T04:42:48;4.77;;;3.30;;
22160;SDS011;49035;48.812;11.762;2023-02-01T04:45:13;5.63;;;3.03;;
22160;SDS011;49035;48.812;11.762;2023-02-01T04:47:39;4.63;;;3.00;;
22160;SDS011;49035;48.812;11.762;2023-02-01T04:50:05;5.30;;;3.30;;
22160;SDS011;49035;48.812;11.762;2023-02-01T04:52:32;4.23;;;3.10;;
22160;SDS011;49035;48.812;11.762;2023-02-01T04:54:57;5.00;;;3.37;;
22160;SDS011;49035;48.812;11.762;2023-02-01T04:57:25;3.87;;;2.83;;
22160;SDS011;49035;48.812;11.762;2023-02-01T04:59:50;5.77;;;3.40;;
22160;SDS011;49035;48.812;11.762;2023-02-01T05:02:16;5.20;;;3.13;;
22160;SDS011;49035;48.812;11.762;2023-02-01T05:04:41;4.30;;;3.00;;
22160;SDS011;49035;48.812;11.762;2023-02-01T05:07:07;6.43;;;3.20;;
22160;SDS011;49035;48.812;11.762;2023-02-01T05:09:32;5.97;;;3.40;;
22160;SDS011;49035;48.812;11.762;2023-02-01T05:11:58;3.67;;;2.70;;
22160;SDS011;49035;48.812;11.762;2023-02-01T05:14:42;5.37;;;3.30;;
22160;SDS011;49035;48.812;11.762;2023-02-01T05:17:08;4.30;;;3.13;;
22160;SDS011;49035;48.812;11.762;2023-02-01T05:19:33;4.40;;;3.00;;
22160;SDS011;49035;48.812;11.762;2023-02-01T05:21:59;4.03;;;2.97;;
22160;SDS011;49035;48.812;11.762;2023-02-01T05:24:24;3.67;;;2.60;;
22160;SDS011;49035;48.812;11.762;2023-02-01T05:26:52;4.10;;;2.90;;
22160;SDS011;49035;48.812;11.762;2023-02-01T05:29:18;5.23;;;3.10;;
22160;SDS011;49035;48.812;11.762;2023-02-01T05:31:47;4.60;;;3.10;;
22160;SDS011;49035;48.812;11.762;2023-02-01T05:34:13;5.27;;;3.10;;
22160;SDS011;49035;48.812;11.762;2023-02-01T05:36:39;4.97;;;3.13;;
22160;SDS011;49035;48.812;11.762;2023-02-01T05:39:05;5.70;;;2.90;;
22160;SDS011;49035;48.812;11.762;2023-02-01T05:41:31;4.23;;;2.97;;
22160;SDS011;49035;48.812;11.762;2023-02-01T05:43:56;4.07;;;2.60;;
22160;SDS011;49035;48.812;11.762;2023-02-01T05:46:22;4.47;;;3.13;;
22160;SDS011;49035;48.812;11.762;2023-02-01T05:48:48;4.33;;;2.97;;
22160;SDS011;49035;48.812;11.762;2023-02-01T05:51:13;3.40;;;2.87;;
22160;SDS011;49035;48.812;11.762;2023-02-01T05:53:39;4.97;;;3.23;;
22160;SDS011;49035;48.812;11.762;2023-02-01T05:56:05;5.50;;;2.77;;
22160;SDS011;49035;48.812;11.762;2023-02-01T05:58:31;4.63;;;3.07;;
22160;SDS011;49035;48.812;11.762;2023-02-01T06:00:59;4.97;;;2.80;;
22160;SDS011;49035;48.812;11.762;2023-02-01T06:03:25;6.63;;;3.13;;
22160;SDS011;49035;48.812;11.762;2023-02-01T06:05:50;5.70;;;3.00;;
22160;SDS011;49035;48.812;11.762;2023-02-01T06:08:16;3.03;;;2.70;;
22160;SDS011;49035;48.812;11.762;2023-02-01T06:10:42;5.33;;;3.10;;
22160;SDS011;49035;48.812;11.762;2023-02-01T06:13:07;6.40;;;3.20;;
22160;SDS011;49035;48.812;11.762;2023-02-01T06:15:33;3.27;;;2.97;;
22160;SDS011;49035;48.812;11.762;2023-02-01T06:17:59;3.43;;;2.67;;
22160;SDS011;49035;48.812;11.762;2023-02-01T06:20:24;4.27;;;2.90;;
22160;SDS011;49035;48.812;11.762;2023-02-01T06:22:50;5.53;;;3.17;;
22160;SDS011;49035;48.812;11.762;2023-02-01T06:25:17;3.33;;;2.53;;
22160;SDS011;49035;48.812;11.762;2023-02-01T06:27:43;6.60;;;2.83;;
22160;SDS011;49035;48.812;11.762;2023-02-01T06:30:10;4.13;;;3.23;;
22160;SDS011;49035;48.812;11.762;2023-02-01T06:32:38;4.27;;;2.90;;
22160;SDS011;49035;48.812;11.762;2023-02-01T06:35:05;4.40;;;3.03;;
22160;SDS011;49035;48.812;11.762;2023-02-01T06:37:32;3.90;;;2.70;;
22160;SDS011;49035;48.812;11.762;2023-02-01T06:39:58;3.97;;;2.97;;
22160;SDS011;49035;48.812;11.762;2023-02-01T06:42:23;4.43;;;2.70;;
22160;SDS011;49035;48.812;11.762;2023-02-01T06:44:49;3.43;;;2.50;;
22160;SDS011;49035;48.812;11.762;2023-02-01T06:47:14;3.17;;;2.60;;
22160;SDS011;49035;48.812;11.762;2023-02-01T06:49:40;5.70;;;2.77;;
22160;SDS011;49035;48.812;11.762;2023-02-01T06:52:06;3.07;;;2.57;;
22160;SDS011;49035;48.812;11.762;2023-02-01T06:54:31;9.10;;;3.03;;
22160;SDS011;49035;48.812;11.762;2023-02-01T06:56:58;4.70;;;2.97;;
22160;SDS011;49035;48.812;11.762;2023-02-01T06:59:24;4.03;;;2.53;;
22160;SDS011;49035;48.812;11.762;2023-02-01T07:01:50;4.60;;;2.50;;
22160;SDS011;49035;48.812;11.762;2023-02-01T07:04:16;3.80;;;2.97;;
22160;SDS011;49035;48.812;11.762;2023-02-01T07:06:41;4.30;;;2.60;;
22160;SDS011;49035;48.812;11.762;2023-02-01T07:09:07;4.87;;;2.40;;
22160;SDS011;49035;48.812;11.762;2023-02-01T07:11:33;4.40;;;2.57;;
22160;SDS011;49035;48.812;11.762;2023-02-01T07:13:59;3.47;;;2.40;;
22160;SDS011;49035;48.812;11.762;2023-02-01T07:16:24;4.03;;;2.60;;
22160;SDS011;49035;48.812;11.762;2023-02-01T07:18:51;4.23;;;2.87;;
22160;SDS011;49035;48.812;11.762;2023-02-01T07:21:17;3.70;;;2.57;;
22160;SDS011;49035;48.812;11.762;2023-02-01T07:23:43;3.43;;;2.93;;
22160;SDS011;49035;48.812;11.762;2023-02-01T07:26:10;5.27;;;2.63;;
22160;SDS011;49035;48.812;11.762;2023-02-01T07:28:38;5.43;;;3.07;;
22160;SDS011;49035;48.812;11.762;2023-02-01T07:31:05;3.67;;;2.77;;
22160;SDS011;49035;48.812;11.762;2023-02-01T07:33:35;3.33;;;2.43;;
22160;SDS011;49035;48.812;11.762;2023-02-01T07:36:02;4.63;;;2.43;;
22160;SDS011;49035;48.812;11.762;2023-02-01T07:38:29;3.37;;;2.40;;
22160;SDS011;49035;48.812;11.762;2023-02-01T07:40:58;2.80;;;2.40;;
22160;SDS011;49035;48.812;11.762;2023-02-01T07:43:25;6.93;;;2.90;;
22160;SDS011;49035;48.812;11.762;2023-02-01T07:45:51;3.97;;;2.90;;
22160;SDS011;49035;48.812;11.762;2023-02-01T07:48:18;3.17;;;2.70;;
22160;SDS011;49035;48.812;11.762;2023-02-01T07:50:44;3.10;;;2.47;;
22160;SDS011;49035;48.812;11.762;2023-02-01T07:53:09;4.13;;;2.37;;
22160;SDS011;49035;48.812;11.762;2023-02-01T07:55:37;2.90;;;2.23;;
22160;SDS011;49035;48.812;11.762;2023-02-01T07:58:03;4.90;;;2.40;;
22160;SDS011;49035;48.812;11.762;2023-02-01T08:00:29;3.40;;;2.40;;
22160;SDS011;49035;48.812;11.762;2023-02-01T08:03:13;3.23;;;2.37;;
22160;SDS011;49035;48.812;11.762;2023-02-01T08:05:39;4.03;;;2.83;;
22160;SDS011;49035;48.812;11.762;2023-02-01T08:08:04;5.00;;;2.60;;
22160;SDS011;49035;48.812;11.762;2023-02-01T08:10:30;3.77;;;2.80;;
22160;SDS011;49035;48.812;11.762;2023-02-01T08:12:59;8.87;;;3.00;;
22160;SDS011;49035;48.812;11.762;2023-02-01T08:15:26;4.07;;;2.80;;
22160;SDS011;49035;48.812;11.762;2023-02-01T08:17:54;5.97;;;3.27;;
22160;SDS011;49035;48.812;11.762;2023-02-01T08:20:21;4.77;;;3.30;;
22160;SDS011;49035;48.812;11.762;2023-02-01T08:22:53;5.20;;;3.37;;
22160;SDS011;49035;48.812;11.762;2023-02-01T08:25:19;5.90;;;3.50;;
22160;SDS011;49035;48.812;11.762;2023-02-01T08:27:45;3.90;;;2.97;;
22160;SDS011;49035;48.812;11.762;2023-02-01T08:30:11;4.07;;;3.30;;
22160;SDS011;49035;48.812;11.762;2023-02-01T08:32:38;5.03;;;3.27;;
22160;SDS011;49035;48.812;11.762;2023-02-01T08:35:04;4.47;;;3.27;;
22160;SDS011;49035;48.812;11.762;2023-02-01T08:37:30;5.87;;;3.67;;
22160;SDS011;49035;48.812;11.762;2023-02-01T08:39:55;5.67;;;3.40;;
22160;SDS011;49035;48.812;11.762;2023-02-01T08:42:21;8.87;;;4.20;;
22160;SDS011;49035;48.812;11.762;2023-02-01T08:45:06;6.40;;;3.27;;
22160;SDS011;49035;48.812;11.762;2023-02-01T08:47:32;4.77;;;3.43;;
22160;SDS011;49035;48.812;11.762;2023-02-01T08:49:58;6.30;;;3.60;;
22160;SDS011;49035;48.812;11.762;2023-02-01T08:52:24;5.60;;;4.00;;
22160;SDS011;49035;48.812;11.762;2023-02-01T08:54:49;5.23;;;4.03;;
22160;SDS011;49035;48.812;11.762;2023-02-01T08:57:15;7.10;;;4.47;;
22160;SDS011;49035;48.812;11.762;2023-02-01T08:59:40;8.13;;;3.83;;
22160;SDS011;49035;48.812;11.762;2023-02-01T09:02:08;6.57;;;4.30;;
22160;SDS011;49035;48.812;11.762;2023-02-01T09:04:38;6.30;;;4.10;;
22160;SDS011;49035;48.812;11.762;2023-02-01T09:07:03;8.07;;;4.00;;
22160;SDS011;49035;48.812;11.762;2023-02-01T09:09:29;4.73;;;3.50;;
22160;SDS011;49035;48.812;11.762;2023-02-01T09:11:54;7.90;;;4.53;;
22160;SDS011;49035;48.812;11.762;2023-02-01T09:14:20;8.20;;;4.33;;
22160;SDS011;49035;48.812;11.762;2023-02-01T09:16:45;8.20;;;4.47;;
22160;SDS011;49035;48.812;11.762;2023-02-01T09:19:11;5.43;;;3.83;;
22160;SDS011;49035;48.812;11.762;2023-02-01T09:21:37;8.37;;;4.43;;
22160;SDS011;49035;48.812;11.762;2023-02-01T09:24:02;8.27;;;4.33;;
22160;SDS011;49035;48.812;11.762;2023-02-01T09:26:29;7.60;;;4.20;;
22160;SDS011;49035;48.812;11.762;2023-02-01T09:28:54;5.73;;;4.00;;
22160;SDS011;49035;48.812;11.762;2023-02-01T09:31:20;6.60;;;4.10;;
22160;SDS011;49035;48.812;11.762;2023-02-01T09:33:46;9.70;;;4.43;;
22160;SDS011;49035;48.812;11.762;2023-02-01T09:36:11;6.40;;;3.70;;
22160;SDS011;49035;48.812;11.762;2023-02-01T09:38:37;7.07;;;4.17;;
22160;SDS011;49035;48.812;11.762;2023-02-01T09:41:06;5.37;;;3.80;;
22160;SDS011;49035;48.812;11.762;2023-02-01T09:43:51;7.83;;;4.80;;
22160;SDS011;49035;48.812;11.762;2023-02-01T09:46:36;5.47;;;3.80;;
22160;SDS011;49035;48.812;11.762;2023-02-01T09:49:45;6.07;;;3.60;;
22160;SDS011;49035;48.812;11.762;2023-02-01T09:51:53;5.90;;;3.50;;
22160;SDS011;49035;48.812;11.762;2023-02-01T09:54:27;4.33;;;3.10;;
22160;SDS011;49035;48.812;11.762;2023-02-01T10:00:20;5.90;;;3.40;;
22160;SDS011;49035;48.812;11.762;2023-02-01T10:02:50;7.50;;;3.90;;
22160;SDS011;49035;48.812;11.762;2023-02-01T10:05:21;6.40;;;3.83;;
22160;SDS011;49035;48.812;11.762;2023-02-01T10:08:10;6.57;;;3.93;;
22160;SDS011;49035;48.812;11.762;2023-02-01T10:22:45;5.40;;;3.50;;
22160;SDS011;49035;48.812;11.762;2023-02-01T10:25:36;4.50;;;3.03;;
22160;SDS011;49035;48.812;11.762;2023-02-01T10:28:11;6.00;;;3.27;;
22160;SDS011;49035;48.812;11.762;2023-02-01T10:30:45;5.67;;;3.43;;
22160;SDS011;49035;48.812;11.762;2023-02-01T10:33:17;5.57;;;2.93;;
22160;SDS011;49035;48.812;11.762;2023-02-01T10:36:39;3.87;;;2.87;;
22160;SDS011;49035;48.812;11.762;2023-02-01T10:38:52;6.17;;;3.30;;
22160;SDS011;49035;48.812;11.762;2023-02-01T10:41:19;6.33;;;3.00;;
22160;SDS011;49035;48.812;11.762;2023-02-01T10:43:50;5.57;;;3.30;;
22160;SDS011;49035;48.812;11.762;2023-02-01T10:46:20;5.53;;;3.00;;
22160;SDS011;49035;48.812;11.762;2023-02-01T10:48:47;5.40;;;3.03;;
22160;SDS011;49035;48.812;11.762;2023-02-01T10:51:15;3.07;;;2.73;;
22160;SDS011;49035;48.812;11.762;2023-02-01T10:53:50;3.73;;;3.20;;
22160;SDS011;49035;48.812;11.762;2023-02-01T10:56:26;3.73;;;2.83;;
22160;SDS011;49035;48.812;11.762;2023-02-01T10:59:03;2.60;;;2.40;;
22160;SDS011;49035;48.812;11.762;2023-02-01T11:01:31;4.63;;;2.90;;
22160;SDS011;49035;48.812;11.762;2023-02-01T11:04:03;4.43;;;3.37;;
22160;SDS011;49035;48.812;11.762;2023-02-01T11:06:34;7.00;;;3.60;;
22160;SDS011;49035;48.812;11.762;2023-02-01T11:11:52;5.80;;;3.43;;
22160;SDS011;49035;48.812;11.762;2023-02-01T11:16:58;7.93;;;3.27;;
22160;SDS011;49035;48.812;11.762;2023-02-01T11:19:27;6.40;;;3.27;;
22160;SDS011;49035;48.812;11.762;2023-02-01T11:21:54;7.43;;;3.10;;
22160;SDS011;49035;48.812;11.762;2023-02-01T11:24:29;7.40;;;3.20;;
22160;SDS011;49035;48.812;11.762;2023-02-01T11:26:58;6.30;;;3.57;;
22160;SDS011;49035;48.812;11.762;2023-02-01T11:29:27;5.70;;;4.17;;
22160;SDS011;49035;48.812;11.762;2023-02-01T11:31:59;5.60;;;3.70;;
22160;SDS011;49035;48.812;11.762;2023-02-01T11:34:26;3.83;;;3.03;;
22160;SDS011;49035;48.812;11.762;2023-02-01T11:36:58;8.00;;;3.30;;
22160;SDS011;49035;48.812;11.762;2023-02-01T11:39:30;3.57;;;2.73;;
22160;SDS011;49035;48.812;11.762;2023-02-01T11:42:05;4.93;;;2.80;;
22160;SDS011;49035;48.812;11.762;2023-02-01T11:44:44;4.10;;;2.90;;
22160;SDS011;49035;48.812;11.762;2023-02-01T11:49:49;7.67;;;2.83;;
22160;SDS011;49035;48.812;11.762;2023-02-01T11:52:43;5.70;;;2.80;;
22160;SDS011;49035;48.812;11.762;2023-02-01T12:00:51;6.40;;;3.20;;
22160;SDS011;49035;48.812;11.762;2023-02-01T12:06:08;7.47;;;3.83;;
22160;SDS011;49035;48.812;11.762;2023-02-01T12:08:44;6.83;;;3.70;;
22160;SDS011;49035;48.812;11.762;2023-02-01T12:25:57;6.00;;;4.10;;
22160;SDS011;49035;48.812;11.762;2023-02-01T12:47:33;7.20;;;3.60;;
22160;SDS011;49035;48.812;11.762;2023-02-01T12:50:40;8.23;;;3.57;;
22160;SDS011;49035;48.812;11.762;2023-02-01T12:53:13;6.50;;;3.83;;
22160;SDS011;49035;48.812;11.762;2023-02-01T12:56:06;10.93;;;3.87;;
22160;SDS011;49035;48.812;11.762;2023-02-01T13:03:50;6.43;;;4.00;;
22160;SDS011;49035;48.812;11.762;2023-02-01T13:11:49;7.57;;;3.97;;
22160;SDS011;49035;48.812;11.762;2023-02-01T13:14:38;8.33;;;3.90;;
22160;SDS011;49035;48.812;11.762;2023-02-01T13:17:22;6.27;;;3.70;;
22160;SDS011;49035;48.812;11.762;2023-02-01T13:19:57;6.60;;;3.90;;
22160;SDS011;49035;48.812;11.762;2023-02-01T13:25:31;8.90;;;3.80;;
22160;SDS011;49035;48.812;11.762;2023-02-01T13:28:06;7.77;;;3.47;;
22160;SDS011;49035;48.812;11.762;2023-02-01T13:36:20;6.33;;;4.53;;
22160;SDS011;49035;48.812;11.762;2023-02-01T13:39:14;9.47;;;4.23;;
22160;SDS011;49035;48.812;11.762;2023-02-01T13:44:45;9.80;;;5.00;;
22160;SDS011;49035;48.812;11.762;2023-02-01T13:50:00;11.27;;;4.27;;
22160;SDS011;49035;48.812;11.762;2023-02-01T13:52:38;8.67;;;4.63;;
22160;SDS011;49035;48.812;11.762;2023-02-01T13:55:23;9.23;;;4.90;;
22160;SDS011;49035;48.812;11.762;2023-02-01T13:57:59;9.87;;;4.60;;
22160;SDS011;49035;48.812;11.762;2023-02-01T14:00:39;10.90;;;4.67;;
22160;SDS011;49035;48.812;11.762;2023-02-01T14:03:08;8.07;;;4.53;;
22160;SDS011;49035;48.812;11.762;2023-02-01T14:10:51;12.20;;;3.83;;
22160;SDS011;49035;48.812;11.762;2023-02-01T14:21:46;9.90;;;4.30;;
22160;SDS011;49035;48.812;11.762;2023-02-01T14:34:14;8.37;;;3.80;;
22160;SDS011;49035;48.812;11.762;2023-02-01T14:37:10;12.17;;;4.00;;
22160;SDS011;49035;48.812;11.762;2023-02-01T14:44:50;7.07;;;3.00;;
22160;SDS011;49035;48.812;11.762;2023-02-01T14:53:35;6.20;;;2.80;;
22160;SDS011;49035;48.812;11.762;2023-02-01T14:55:45;5.10;;;2.87;;
22160;SDS011;49035;48.812;11.762;2023-02-01T15:00:47;9.47;;;3.07;;
22160;SDS011;49035;48.812;11.762;2023-02-01T15:03:39;5.90;;;2.87;;
22160;SDS011;49035;48.812;11.762;2023-02-01T15:08:52;8.47;;;2.83;;
22160;SDS011;49035;48.812;11.762;2023-02-01T15:11:21;13.80;;;3.13;;
22160;SDS011;49035;48.812;11.762;2023-02-01T15:13:48;9.83;;;3.07;;
22160;SDS011;49035;48.812;11.762;2023-02-01T15:16:16;6.50;;;2.80;;
22160;SDS011;49035;48.812;11.762;2023-02-01T15:18:42;13.27;;;3.07;;
22160;SDS011;49035;48.812;11.762;2023-02-01T15:23:48;9.37;;;2.27;;
22160;SDS011;49035;48.812;11.762;2023-02-01T15:26:28;9.40;;;3.97;;
22160;SDS011;49035;48.812;11.762;2023-02-01T15:28:56;7.40;;;2.30;;
22160;SDS011;49035;48.812;11.762;2023-02-01T15:31:39;4.50;;;1.80;;
22160;SDS011;49035;48.812;11.762;2023-02-01T15:34:10;12.30;;;2.87;;
22160;SDS011;49035;48.812;11.762;2023-02-01T15:36:36;7.93;;;3.00;;
22160;SDS011;49035;48.812;11.762;2023-02-01T15:41:51;8.47;;;2.53;;
22160;SDS011;49035;48.812;11.762;2023-02-01T15:47:16;12.37;;;2.53;;
22160;SDS011;49035;48.812;11.762;2023-02-01T15:49:50;3.97;;;1.90;;
22160;SDS011;49035;48.812;11.762;2023-02-01T15:52:23;14.80;;;2.90;;
22160;SDS011;49035;48.812;11.762;2023-02-01T15:54:51;7.30;;;2.50;;
22160;SDS011;49035;48.812;11.762;2023-02-01T15:57:28;7.83;;;2.30;;
22160;SDS011;49035;48.812;11.762;2023-02-01T15:59:58;7.37;;;2.80;;
22160;SDS011;49035;48.812;11.762;2023-02-01T16:02:35;6.37;;;2.00;;
22160;SDS011;49035;48.812;11.762;2023-02-01T16:05:21;7.30;;;2.23;;
22160;SDS011;49035;48.812;11.762;2023-02-01T16:08:48;8.67;;;3.40;;
22160;SDS011;49035;48.812;11.762;2023-02-01T16:10:52;9.10;;;2.40;;
22160;SDS011;49035;48.812;11.762;2023-02-01T16:13:24;11.27;;;2.70;;
22160;SDS011;49035;48.812;11.762;2023-02-01T16:15:49;8.07;;;2.40;;
22160;SDS011;49035;48.812;11.762;2023-02-01T16:18:15;6.13;;;2.07;;
22160;SDS011;49035;48.812;11.762;2023-02-01T16:20:41;8.17;;;2.30;;
22160;SDS011;49035;48.812;11.762;2023-02-01T16:23:08;7.27;;;2.10;;
22160;SDS011;49035;48.812;11.762;2023-02-01T16:25:34;9.23;;;2.53;;
22160;SDS011;49035;48.812;11.762;2023-02-01T16:28:00;8.70;;;2.43;;
22160;SDS011;49035;48.812;11.762;2023-02-01T16:30:26;9.63;;;2.47;;
22160;SDS011;49035;48.812;11.762;2023-02-01T16:32:52;12.87;;;2.90;;
22160;SDS011;49035;48.812;11.762;2023-02-01T16:35:34;8.80;;;2.60;;
22160;SDS011;49035;48.812;11.762;2023-02-01T16:38:08;8.77;;;2.53;;
22160;SDS011;49035;48.812;11.762;2023-02-01T16:40:38;5.87;;;2.80;;
22160;SDS011;49035;48.812;11.762;2023-02-01T16:43:11;15.67;;;2.70;;
22160;SDS011;49035;48.812;11.762;2023-02-01T16:45:46;5.90;;;2.40;;
22160;SDS011;49035;48.812;11.762;2023-02-01T16:48:18;8.00;;;2.50;;
22160;SDS011;49035;48.812;11.762;2023-02-01T16:50:50;11.03;;;2.80;;
22160;SDS011;49035;48.812;11.762;2023-02-01T16:53:21;8.07;;;2.77;;
22160;SDS011;49035;48.812;11.762;2023-02-01T16:55:48;9.63;;;2.93;;
22160;SDS011;49035;48.812;11.762;2023-02-01T16:58:14;11.40;;;2.97;;
22160;SDS011;49035;48.812;11.762;2023-02-01T17:00:41;8.07;;;2.90;;
22160;SDS011;49035;48.812;11.762;2023-02-01T17:03:07;6.63;;;2.33;;
22160;SDS011;49035;48.812;11.762;2023-02-01T17:05:32;10.57;;;2.60;;
22160;SDS011;49035;48.812;11.762;2023-02-01T17:07:59;9.10;;;2.57;;
22160;SDS011;49035;48.812;11.762;2023-02-01T17:10:31;9.03;;;2.50;;
22160;SDS011;49035;48.812;11.762;2023-02-01T17:12:56;8.27;;;2.47;;
22160;SDS011;49035;48.812;11.762;2023-02-01T17:15:23;6.50;;;2.27;;
22160;SDS011;49035;48.812;11.762;2023-02-01T17:17:51;7.23;;;1.97;;
22160;SDS011;49035;48.812;11.762;2023-02-01T17:20:20;10.67;;;2.60;;
22160;SDS011;49035;48.812;11.762;2023-02-01T17:22:48;5.10;;;2.30;;
22160;SDS011;49035;48.812;11.762;2023-02-01T17:25:19;6.93;;;2.40;;
22160;SDS011;49035;48.812;11.762;2023-02-01T17:27:46;6.97;;;2.90;;
22160;SDS011;49035;48.812;11.762;2023-02-01T17:30:13;7.17;;;2.53;;